sensor_id;sensor_type;location;lat;lon;timestamp;P1;durP1;ratioP1;P2;durP2;ratioP2
2305;SDS011;1161;51.922;8.896;2023-01-25T00:00:20;30.27;;;14.57;;
2305;SDS011;1161;51.922;8.896;2023-01-25T00:02:48;26.25;;;14.20;;
2305;SDS011;1161;51.922;8.896;2023-01-25T00:05:15;21.67;;;11.75;;
2305;SDS011;1161;51.922;8.896;2023-01-25T00:07:41;31.40;;;13.95;;
2305;SDS011;1161;51.922;8.896;2023-01-25T00:10:08;25.50;;;15.45;;
2305;SDS011;1161;51.922;8.896;2023-01-25T00:12:36;32.22;;;13.27;;
2305;SDS011;1161;51.922;8.896;2023-01-25T00:15:02;32.75;;;14.20;;
2305;SDS011;1161;51.922;8.896;2023-01-25T00:17:30;22.60;;;14.32;;
2305;SDS011;1161;51.922;8.896;2023-01-25T00:19:58;27.48;;;12.57;;
2305;SDS011;1161;51.922;8.896;2023-01-25T00:22:25;32.58;;;14.48;;
2305;SDS011;1161;51.922;8.896;2023-01-25T00:24:51;24.45;;;12.68;;
2305;SDS011;1161;51.922;8.896;2023-01-25T00:27:18;32.38;;;14.07;;
2305;SDS011;1161;51.922;8.896;2023-01-25T00:29:44;32.53;;;14.38;;
2305;SDS011;1161;51.922;8.896;2023-01-25T00:32:27;27.52;;;15.10;;
2305;SDS011;1161;51.922;8.896;2023-01-25T00:34:59;35.28;;;15.35;;
2305;SDS011;1161;51.922;8.896;2023-01-25T00:37:38;21.33;;;11.90;;
2305;SDS011;1161;51.922;8.896;2023-01-25T00:40:08;24.58;;;11.95;;
2305;SDS011;1161;51.922;8.896;2023-01-25T00:42:36;30.52;;;14.57;;
2305;SDS011;1161;51.922;8.896;2023-01-25T00:45:03;30.80;;;14.25;;
2305;SDS011;1161;51.922;8.896;2023-01-25T00:47:30;28.37;;;14.70;;
2305;SDS011;1161;51.922;8.896;2023-01-25T00:49:56;32.25;;;14.93;;
2305;SDS011;1161;51.922;8.896;2023-01-25T00:52:24;31.95;;;17.20;;
2305;SDS011;1161;51.922;8.896;2023-01-25T00:54:52;44.70;;;16.00;;
2305;SDS011;1161;51.922;8.896;2023-01-25T00:57:19;27.60;;;14.60;;
2305;SDS011;1161;51.922;8.896;2023-01-25T00:59:45;35.17;;;14.82;;
2305;SDS011;1161;51.922;8.896;2023-01-25T01:02:12;33.70;;;16.27;;
2305;SDS011;1161;51.922;8.896;2023-01-25T01:04:39;34.13;;;15.35;;
2305;SDS011;1161;51.922;8.896;2023-01-25T01:07:05;36.45;;;15.40;;
2305;SDS011;1161;51.922;8.896;2023-01-25T01:09:33;32.28;;;15.70;;
2305;SDS011;1161;51.922;8.896;2023-01-25T01:12:00;29.38;;;15.15;;
2305;SDS011;1161;51.922;8.896;2023-01-25T01:14:26;33.13;;;15.38;;
2305;SDS011;1161;51.922;8.896;2023-01-25T01:16:53;37.97;;;17.05;;
2305;SDS011;1161;51.922;8.896;2023-01-25T01:19:19;39.33;;;17.13;;
2305;SDS011;1161;51.922;8.896;2023-01-25T01:21:46;45.07;;;17.47;;
2305;SDS011;1161;51.922;8.896;2023-01-25T01:24:13;36.22;;;16.27;;
2305;SDS011;1161;51.922;8.896;2023-01-25T01:26:41;39.10;;;18.02;;
2305;SDS011;1161;51.922;8.896;2023-01-25T01:29:07;32.33;;;16.10;;
2305;SDS011;1161;51.922;8.896;2023-01-25T01:31:34;36.90;;;17.10;;
2305;SDS011;1161;51.922;8.896;2023-01-25T01:34:01;37.57;;;16.67;;
2305;SDS011;1161;51.922;8.896;2023-01-25T01:36:28;36.85;;;16.05;;
2305;SDS011;1161;51.922;8.896;2023-01-25T01:38:56;34.80;;;17.47;;
2305;SDS011;1161;51.922;8.896;2023-01-25T01:41:23;32.85;;;15.82;;
2305;SDS011;1161;51.922;8.896;2023-01-25T01:43:51;33.97;;;17.67;;
2305;SDS011;1161;51.922;8.896;2023-01-25T01:46:20;49.17;;;20.00;;
2305;SDS011;1161;51.922;8.896;2023-01-25T01:48:49;41.20;;;19.08;;
2305;SDS011;1161;51.922;8.896;2023-01-25T01:51:18;46.80;;;19.13;;
2305;SDS011;1161;51.922;8.896;2023-01-25T01:53:48;42.58;;;20.08;;
2305;SDS011;1161;51.922;8.896;2023-01-25T01:56:17;50.60;;;20.15;;
2305;SDS011;1161;51.922;8.896;2023-01-25T01:58:46;50.45;;;20.20;;
2305;SDS011;1161;51.922;8.896;2023-01-25T02:01:15;48.83;;;19.33;;
2305;SDS011;1161;51.922;8.896;2023-01-25T02:03:42;52.38;;;23.02;;
2305;SDS011;1161;51.922;8.896;2023-01-25T02:06:11;47.10;;;21.40;;
2305;SDS011;1161;51.922;8.896;2023-01-25T02:08:39;49.20;;;19.25;;
2305;SDS011;1161;51.922;8.896;2023-01-25T02:11:07;47.20;;;20.83;;
2305;SDS011;1161;51.922;8.896;2023-01-25T02:13:34;51.00;;;21.30;;
2305;SDS011;1161;51.922;8.896;2023-01-25T02:16:03;42.40;;;18.63;;
2305;SDS011;1161;51.922;8.896;2023-01-25T02:18:31;62.83;;;19.70;;
2305;SDS011;1161;51.922;8.896;2023-01-25T02:20:58;44.40;;;21.75;;
2305;SDS011;1161;51.922;8.896;2023-01-25T02:23:28;40.40;;;19.95;;
2305;SDS011;1161;51.922;8.896;2023-01-25T02:25:59;43.30;;;19.33;;
2305;SDS011;1161;51.922;8.896;2023-01-25T02:28:28;38.72;;;18.23;;
2305;SDS011;1161;51.922;8.896;2023-01-25T02:30:55;34.53;;;15.43;;
2305;SDS011;1161;51.922;8.896;2023-01-25T02:33:22;32.05;;;16.88;;
2305;SDS011;1161;51.922;8.896;2023-01-25T02:35:52;35.33;;;15.80;;
2305;SDS011;1161;51.922;8.896;2023-01-25T02:38:21;37.28;;;16.85;;
2305;SDS011;1161;51.922;8.896;2023-01-25T02:40:50;30.03;;;15.57;;
2305;SDS011;1161;51.922;8.896;2023-01-25T02:43:20;29.92;;;15.52;;
2305;SDS011;1161;51.922;8.896;2023-01-25T02:45:51;38.65;;;16.17;;
2305;SDS011;1161;51.922;8.896;2023-01-25T02:48:21;42.40;;;14.67;;
2305;SDS011;1161;51.922;8.896;2023-01-25T02:50:48;31.25;;;13.20;;
2305;SDS011;1161;51.922;8.896;2023-01-25T02:53:14;25.98;;;12.70;;
2305;SDS011;1161;51.922;8.896;2023-01-25T02:55:41;32.80;;;15.30;;
2305;SDS011;1161;51.922;8.896;2023-01-25T02:58:08;29.88;;;15.65;;
2305;SDS011;1161;51.922;8.896;2023-01-25T03:00:37;31.80;;;14.77;;
2305;SDS011;1161;51.922;8.896;2023-01-25T03:03:03;31.63;;;13.60;;
2305;SDS011;1161;51.922;8.896;2023-01-25T03:05:30;36.37;;;14.30;;
2305;SDS011;1161;51.922;8.896;2023-01-25T03:07:57;26.83;;;13.10;;
2305;SDS011;1161;51.922;8.896;2023-01-25T03:10:24;37.88;;;15.13;;
2305;SDS011;1161;51.922;8.896;2023-01-25T03:12:50;27.63;;;14.13;;
2305;SDS011;1161;51.922;8.896;2023-01-25T03:15:17;30.95;;;12.73;;
2305;SDS011;1161;51.922;8.896;2023-01-25T03:17:45;23.80;;;12.25;;
2305;SDS011;1161;51.922;8.896;2023-01-25T03:20:11;25.30;;;11.60;;
2305;SDS011;1161;51.922;8.896;2023-01-25T03:22:38;40.63;;;15.43;;
2305;SDS011;1161;51.922;8.896;2023-01-25T03:25:05;28.17;;;13.65;;
2305;SDS011;1161;51.922;8.896;2023-01-25T03:27:33;29.58;;;14.82;;
2305;SDS011;1161;51.922;8.896;2023-01-25T03:29:59;29.30;;;13.60;;
2305;SDS011;1161;51.922;8.896;2023-01-25T03:32:26;29.90;;;15.60;;
2305;SDS011;1161;51.922;8.896;2023-01-25T03:34:54;31.90;;;15.15;;
2305;SDS011;1161;51.922;8.896;2023-01-25T03:37:21;35.10;;;15.17;;
2305;SDS011;1161;51.922;8.896;2023-01-25T03:39:48;35.60;;;15.20;;
2305;SDS011;1161;51.922;8.896;2023-01-25T03:42:15;28.50;;;14.00;;
2305;SDS011;1161;51.922;8.896;2023-01-25T03:44:41;31.60;;;14.73;;
2305;SDS011;1161;51.922;8.896;2023-01-25T03:47:08;31.37;;;15.67;;
2305;SDS011;1161;51.922;8.896;2023-01-25T03:49:35;43.35;;;15.73;;
2305;SDS011;1161;51.922;8.896;2023-01-25T03:52:03;37.67;;;16.15;;
2305;SDS011;1161;51.922;8.896;2023-01-25T03:54:31;31.80;;;15.23;;
2305;SDS011;1161;51.922;8.896;2023-01-25T03:56:58;25.83;;;13.82;;
2305;SDS011;1161;51.922;8.896;2023-01-25T03:59:25;52.37;;;14.67;;
2305;SDS011;1161;51.922;8.896;2023-01-25T04:01:52;31.80;;;13.98;;
2305;SDS011;1161;51.922;8.896;2023-01-25T04:04:19;33.28;;;12.98;;
2305;SDS011;1161;51.922;8.896;2023-01-25T04:06:45;23.17;;;12.10;;
2305;SDS011;1161;51.922;8.896;2023-01-25T04:09:13;22.42;;;12.52;;
2305;SDS011;1161;51.922;8.896;2023-01-25T04:11:41;28.35;;;11.18;;
2305;SDS011;1161;51.922;8.896;2023-01-25T04:14:09;21.55;;;10.50;;
2305;SDS011;1161;51.922;8.896;2023-01-25T04:16:36;25.42;;;11.70;;
2305;SDS011;1161;51.922;8.896;2023-01-25T04:19:03;32.65;;;11.32;;
2305;SDS011;1161;51.922;8.896;2023-01-25T04:21:30;28.35;;;10.73;;
2305;SDS011;1161;51.922;8.896;2023-01-25T04:23:58;17.30;;;9.55;;
2305;SDS011;1161;51.922;8.896;2023-01-25T04:26:28;21.98;;;10.32;;
2305;SDS011;1161;51.922;8.896;2023-01-25T04:28:55;29.65;;;13.30;;
2305;SDS011;1161;51.922;8.896;2023-01-25T04:31:22;22.48;;;9.50;;
2305;SDS011;1161;51.922;8.896;2023-01-25T04:33:49;14.95;;;8.88;;
2305;SDS011;1161;51.922;8.896;2023-01-25T04:36:16;22.13;;;10.40;;
2305;SDS011;1161;51.922;8.896;2023-01-25T04:38:43;19.05;;;9.80;;
2305;SDS011;1161;51.922;8.896;2023-01-25T04:41:10;33.05;;;12.20;;
2305;SDS011;1161;51.922;8.896;2023-01-25T04:43:39;39.53;;;10.15;;
2305;SDS011;1161;51.922;8.896;2023-01-25T04:46:07;23.98;;;11.70;;
2305;SDS011;1161;51.922;8.896;2023-01-25T04:48:34;23.15;;;11.00;;
2305;SDS011;1161;51.922;8.896;2023-01-25T04:51:03;26.30;;;10.38;;
2305;SDS011;1161;51.922;8.896;2023-01-25T04:53:30;22.83;;;10.30;;
2305;SDS011;1161;51.922;8.896;2023-01-25T04:55:57;27.98;;;11.45;;
2305;SDS011;1161;51.922;8.896;2023-01-25T04:58:25;23.95;;;11.18;;
2305;SDS011;1161;51.922;8.896;2023-01-25T05:00:58;35.38;;;13.32;;
2305;SDS011;1161;51.922;8.896;2023-01-25T05:03:25;31.70;;;15.07;;
2305;SDS011;1161;51.922;8.896;2023-01-25T05:05:54;28.42;;;14.48;;
2305;SDS011;1161;51.922;8.896;2023-01-25T05:08:22;19.65;;;9.95;;
2305;SDS011;1161;51.922;8.896;2023-01-25T05:10:50;28.02;;;11.57;;
2305;SDS011;1161;51.922;8.896;2023-01-25T05:13:18;18.60;;;10.15;;
2305;SDS011;1161;51.922;8.896;2023-01-25T05:15:47;24.13;;;11.43;;
2305;SDS011;1161;51.922;8.896;2023-01-25T05:18:15;16.88;;;8.82;;
2305;SDS011;1161;51.922;8.896;2023-01-25T05:20:43;26.42;;;11.00;;
2305;SDS011;1161;51.922;8.896;2023-01-25T05:23:14;25.08;;;9.23;;
2305;SDS011;1161;51.922;8.896;2023-01-25T05:25:47;25.10;;;11.35;;
2305;SDS011;1161;51.922;8.896;2023-01-25T05:28:32;23.63;;;9.80;;
2305;SDS011;1161;51.922;8.896;2023-01-25T05:31:02;19.02;;;9.57;;
2305;SDS011;1161;51.922;8.896;2023-01-25T05:33:30;22.98;;;11.52;;
2305;SDS011;1161;51.922;8.896;2023-01-25T05:35:58;14.35;;;8.57;;
2305;SDS011;1161;51.922;8.896;2023-01-25T05:38:26;20.35;;;10.25;;
2305;SDS011;1161;51.922;8.896;2023-01-25T05:40:56;28.85;;;11.32;;
2305;SDS011;1161;51.922;8.896;2023-01-25T05:43:24;22.45;;;9.82;;
2305;SDS011;1161;51.922;8.896;2023-01-25T05:45:53;22.73;;;10.57;;
2305;SDS011;1161;51.922;8.896;2023-01-25T05:48:20;24.05;;;11.55;;
2305;SDS011;1161;51.922;8.896;2023-01-25T05:50:49;24.33;;;12.15;;
2305;SDS011;1161;51.922;8.896;2023-01-25T05:53:23;28.90;;;11.02;;
2305;SDS011;1161;51.922;8.896;2023-01-25T05:55:53;34.97;;;10.77;;
2305;SDS011;1161;51.922;8.896;2023-01-25T05:58:20;24.63;;;9.63;;
2305;SDS011;1161;51.922;8.896;2023-01-25T06:00:47;21.65;;;10.38;;
2305;SDS011;1161;51.922;8.896;2023-01-25T06:03:17;22.95;;;11.50;;
2305;SDS011;1161;51.922;8.896;2023-01-25T06:05:44;16.90;;;9.60;;
2305;SDS011;1161;51.922;8.896;2023-01-25T06:08:13;20.05;;;10.43;;
2305;SDS011;1161;51.922;8.896;2023-01-25T06:10:40;20.83;;;9.93;;
2305;SDS011;1161;51.922;8.896;2023-01-25T06:13:10;15.35;;;8.93;;
2305;SDS011;1161;51.922;8.896;2023-01-25T06:15:39;28.33;;;10.95;;
2305;SDS011;1161;51.922;8.896;2023-01-25T06:18:05;18.52;;;8.57;;
2305;SDS011;1161;51.922;8.896;2023-01-25T06:20:32;19.08;;;9.15;;
2305;SDS011;1161;51.922;8.896;2023-01-25T06:22:59;16.05;;;8.15;;
2305;SDS011;1161;51.922;8.896;2023-01-25T06:25:27;17.92;;;7.72;;
2305;SDS011;1161;51.922;8.896;2023-01-25T06:27:55;16.50;;;8.70;;
2305;SDS011;1161;51.922;8.896;2023-01-25T06:30:24;19.30;;;8.85;;
2305;SDS011;1161;51.922;8.896;2023-01-25T06:32:52;17.77;;;10.00;;
2305;SDS011;1161;51.922;8.896;2023-01-25T06:35:20;18.15;;;9.18;;
2305;SDS011;1161;51.922;8.896;2023-01-25T06:37:46;21.08;;;9.07;;
2305;SDS011;1161;51.922;8.896;2023-01-25T06:40:14;20.70;;;11.80;;
2305;SDS011;1161;51.922;8.896;2023-01-25T06:42:43;21.95;;;10.35;;
2305;SDS011;1161;51.922;8.896;2023-01-25T06:45:10;25.00;;;9.95;;
2305;SDS011;1161;51.922;8.896;2023-01-25T06:47:37;24.02;;;11.35;;
2305;SDS011;1161;51.922;8.896;2023-01-25T06:50:04;19.17;;;10.38;;
2305;SDS011;1161;51.922;8.896;2023-01-25T06:52:31;26.00;;;10.15;;
2305;SDS011;1161;51.922;8.896;2023-01-25T06:55:03;19.48;;;10.68;;
2305;SDS011;1161;51.922;8.896;2023-01-25T06:57:36;22.38;;;10.63;;
2305;SDS011;1161;51.922;8.896;2023-01-25T07:00:06;17.00;;;7.93;;
2305;SDS011;1161;51.922;8.896;2023-01-25T07:02:34;22.20;;;9.93;;
2305;SDS011;1161;51.922;8.896;2023-01-25T07:05:03;21.13;;;10.70;;
2305;SDS011;1161;51.922;8.896;2023-01-25T07:07:30;16.33;;;9.07;;
2305;SDS011;1161;51.922;8.896;2023-01-25T07:09:57;21.10;;;9.05;;
2305;SDS011;1161;51.922;8.896;2023-01-25T07:12:27;15.20;;;9.13;;
2305;SDS011;1161;51.922;8.896;2023-01-25T07:14:56;18.75;;;8.15;;
2305;SDS011;1161;51.922;8.896;2023-01-25T07:17:24;13.18;;;7.85;;
2305;SDS011;1161;51.922;8.896;2023-01-25T07:19:52;15.85;;;9.30;;
2305;SDS011;1161;51.922;8.896;2023-01-25T07:22:19;10.65;;;7.47;;
2305;SDS011;1161;51.922;8.896;2023-01-25T07:24:48;20.83;;;7.82;;
2305;SDS011;1161;51.922;8.896;2023-01-25T07:27:17;18.58;;;7.70;;
2305;SDS011;1161;51.922;8.896;2023-01-25T07:29:44;16.48;;;9.88;;
2305;SDS011;1161;51.922;8.896;2023-01-25T07:32:15;22.75;;;10.15;;
2305;SDS011;1161;51.922;8.896;2023-01-25T07:34:43;18.35;;;8.77;;
2305;SDS011;1161;51.922;8.896;2023-01-25T07:37:12;18.92;;;8.82;;
2305;SDS011;1161;51.922;8.896;2023-01-25T07:39:39;14.60;;;8.40;;
2305;SDS011;1161;51.922;8.896;2023-01-25T07:42:12;19.10;;;8.27;;
2305;SDS011;1161;51.922;8.896;2023-01-25T07:44:39;26.38;;;10.32;;
2305;SDS011;1161;51.922;8.896;2023-01-25T07:47:06;14.07;;;7.63;;
2305;SDS011;1161;51.922;8.896;2023-01-25T07:49:33;16.85;;;8.48;;
2305;SDS011;1161;51.922;8.896;2023-01-25T07:52:01;16.27;;;9.15;;
2305;SDS011;1161;51.922;8.896;2023-01-25T07:54:27;15.43;;;8.77;;
2305;SDS011;1161;51.922;8.896;2023-01-25T07:56:54;16.95;;;10.20;;
2305;SDS011;1161;51.922;8.896;2023-01-25T07:59:22;21.42;;;9.73;;
2305;SDS011;1161;51.922;8.896;2023-01-25T08:01:50;17.33;;;10.55;;
2305;SDS011;1161;51.922;8.896;2023-01-25T08:04:17;21.08;;;9.77;;
2305;SDS011;1161;51.922;8.896;2023-01-25T08:06:44;20.75;;;10.35;;
2305;SDS011;1161;51.922;8.896;2023-01-25T08:09:13;22.00;;;9.38;;
2305;SDS011;1161;51.922;8.896;2023-01-25T08:11:41;23.27;;;9.55;;
2305;SDS011;1161;51.922;8.896;2023-01-25T08:14:08;20.73;;;11.20;;
2305;SDS011;1161;51.922;8.896;2023-01-25T08:16:35;24.33;;;10.57;;
2305;SDS011;1161;51.922;8.896;2023-01-25T08:19:02;20.45;;;10.43;;
2305;SDS011;1161;51.922;8.896;2023-01-25T08:21:30;26.60;;;10.90;;
2305;SDS011;1161;51.922;8.896;2023-01-25T08:23:57;26.50;;;10.57;;
2305;SDS011;1161;51.922;8.896;2023-01-25T08:26:26;18.52;;;9.10;;
2305;SDS011;1161;51.922;8.896;2023-01-25T08:28:53;70.03;;;26.50;;
2305;SDS011;1161;51.922;8.896;2023-01-25T08:31:21;51.28;;;23.63;;
2305;SDS011;1161;51.922;8.896;2023-01-25T08:33:49;33.00;;;14.45;;
2305;SDS011;1161;51.922;8.896;2023-01-25T08:36:16;21.23;;;9.68;;
2305;SDS011;1161;51.922;8.896;2023-01-25T08:38:44;21.60;;;9.00;;
2305;SDS011;1161;51.922;8.896;2023-01-25T08:41:11;34.78;;;13.88;;
2305;SDS011;1161;51.922;8.896;2023-01-25T08:43:41;33.72;;;14.77;;
2305;SDS011;1161;51.922;8.896;2023-01-25T08:46:08;29.50;;;17.10;;
2305;SDS011;1161;51.922;8.896;2023-01-25T08:48:35;25.50;;;11.02;;
2305;SDS011;1161;51.922;8.896;2023-01-25T08:51:01;37.33;;;15.88;;
2305;SDS011;1161;51.922;8.896;2023-01-25T08:53:29;36.17;;;12.35;;
2305;SDS011;1161;51.922;8.896;2023-01-25T08:56:01;40.95;;;18.65;;
2305;SDS011;1161;51.922;8.896;2023-01-25T08:58:28;28.75;;;12.85;;
2305;SDS011;1161;51.922;8.896;2023-01-25T09:01:00;22.63;;;11.48;;
2305;SDS011;1161;51.922;8.896;2023-01-25T09:03:28;19.60;;;10.60;;
2305;SDS011;1161;51.922;8.896;2023-01-25T09:05:55;27.27;;;10.52;;
2305;SDS011;1161;51.922;8.896;2023-01-25T09:08:22;24.95;;;10.40;;
2305;SDS011;1161;51.922;8.896;2023-01-25T09:10:49;77.82;;;27.73;;
2305;SDS011;1161;51.922;8.896;2023-01-25T09:13:15;21.88;;;11.93;;
2305;SDS011;1161;51.922;8.896;2023-01-25T09:15:42;31.02;;;12.65;;
2305;SDS011;1161;51.922;8.896;2023-01-25T09:18:11;26.17;;;12.93;;
2305;SDS011;1161;51.922;8.896;2023-01-25T09:20:39;18.52;;;11.05;;
2305;SDS011;1161;51.922;8.896;2023-01-25T09:23:05;36.08;;;15.70;;
2305;SDS011;1161;51.922;8.896;2023-01-25T09:25:32;34.63;;;15.85;;
2305;SDS011;1161;51.922;8.896;2023-01-25T09:27:59;34.50;;;14.00;;
2305;SDS011;1161;51.922;8.896;2023-01-25T09:30:26;35.30;;;12.60;;
2305;SDS011;1161;51.922;8.896;2023-01-25T09:32:53;35.05;;;16.90;;
2305;SDS011;1161;51.922;8.896;2023-01-25T09:35:21;24.70;;;11.82;;
2305;SDS011;1161;51.922;8.896;2023-01-25T09:37:49;23.63;;;11.15;;
2305;SDS011;1161;51.922;8.896;2023-01-25T09:40:17;30.20;;;11.70;;
2305;SDS011;1161;51.922;8.896;2023-01-25T09:42:49;21.20;;;9.60;;
2305;SDS011;1161;51.922;8.896;2023-01-25T09:45:24;21.45;;;10.93;;
2305;SDS011;1161;51.922;8.896;2023-01-25T09:47:58;24.52;;;11.27;;
2305;SDS011;1161;51.922;8.896;2023-01-25T09:50:33;47.53;;;16.98;;
2305;SDS011;1161;51.922;8.896;2023-01-25T09:53:09;43.25;;;16.67;;
2305;SDS011;1161;51.922;8.896;2023-01-25T09:55:41;33.83;;;13.25;;
2305;SDS011;1161;51.922;8.896;2023-01-25T09:58:11;27.50;;;11.55;;
2305;SDS011;1161;51.922;8.896;2023-01-25T10:00:40;29.70;;;12.52;;
2305;SDS011;1161;51.922;8.896;2023-01-25T10:03:10;23.23;;;10.18;;
2305;SDS011;1161;51.922;8.896;2023-01-25T10:05:43;26.00;;;10.57;;
2305;SDS011;1161;51.922;8.896;2023-01-25T10:08:14;36.28;;;13.43;;
2305;SDS011;1161;51.922;8.896;2023-01-25T10:10:45;36.83;;;13.90;;
2305;SDS011;1161;51.922;8.896;2023-01-25T10:13:13;22.55;;;12.05;;
2305;SDS011;1161;51.922;8.896;2023-01-25T10:15:42;23.27;;;10.48;;
2305;SDS011;1161;51.922;8.896;2023-01-25T10:18:15;29.60;;;11.45;;
2305;SDS011;1161;51.922;8.896;2023-01-25T10:20:47;25.02;;;10.70;;
2305;SDS011;1161;51.922;8.896;2023-01-25T10:26:13;20.10;;;11.60;;
2305;SDS011;1161;51.922;8.896;2023-01-25T10:28:44;32.10;;;13.43;;
2305;SDS011;1161;51.922;8.896;2023-01-25T10:31:15;28.05;;;11.88;;
2305;SDS011;1161;51.922;8.896;2023-01-25T10:33:44;22.73;;;9.18;;
2305;SDS011;1161;51.922;8.896;2023-01-25T10:36:13;24.00;;;10.43;;
2305;SDS011;1161;51.922;8.896;2023-01-25T10:38:41;29.55;;;11.25;;
2305;SDS011;1161;51.922;8.896;2023-01-25T10:41:11;27.20;;;10.70;;
2305;SDS011;1161;51.922;8.896;2023-01-25T10:43:41;21.90;;;11.57;;
2305;SDS011;1161;51.922;8.896;2023-01-25T10:46:18;25.45;;;11.45;;
2305;SDS011;1161;51.922;8.896;2023-01-25T10:48:47;33.17;;;13.30;;
2305;SDS011;1161;51.922;8.896;2023-01-25T10:51:31;29.67;;;14.43;;
2305;SDS011;1161;51.922;8.896;2023-01-25T10:54:00;33.97;;;12.75;;
2305;SDS011;1161;51.922;8.896;2023-01-25T10:56:27;28.92;;;13.27;;
2305;SDS011;1161;51.922;8.896;2023-01-25T10:59:05;33.70;;;12.93;;
2305;SDS011;1161;51.922;8.896;2023-01-25T11:01:34;39.38;;;16.25;;
2305;SDS011;1161;51.922;8.896;2023-01-25T11:04:01;22.58;;;12.73;;
2305;SDS011;1161;51.922;8.896;2023-01-25T11:06:31;29.75;;;12.40;;
2305;SDS011;1161;51.922;8.896;2023-01-25T11:08:59;35.38;;;13.30;;
2305;SDS011;1161;51.922;8.896;2023-01-25T11:11:30;37.42;;;13.52;;
2305;SDS011;1161;51.922;8.896;2023-01-25T11:13:57;50.78;;;16.42;;
2305;SDS011;1161;51.922;8.896;2023-01-25T11:16:34;43.15;;;15.25;;
2305;SDS011;1161;51.922;8.896;2023-01-25T11:19:04;46.25;;;15.80;;
2305;SDS011;1161;51.922;8.896;2023-01-25T11:21:51;33.17;;;13.13;;
2305;SDS011;1161;51.922;8.896;2023-01-25T11:24:18;45.60;;;14.40;;
2305;SDS011;1161;51.922;8.896;2023-01-25T11:26:45;56.10;;;15.95;;
2305;SDS011;1161;51.922;8.896;2023-01-25T11:29:13;45.95;;;16.40;;
2305;SDS011;1161;51.922;8.896;2023-01-25T11:31:42;45.78;;;16.25;;
2305;SDS011;1161;51.922;8.896;2023-01-25T11:34:11;34.33;;;16.42;;
2305;SDS011;1161;51.922;8.896;2023-01-25T11:36:41;43.97;;;15.10;;
2305;SDS011;1161;51.922;8.896;2023-01-25T11:39:17;52.03;;;17.02;;
2305;SDS011;1161;51.922;8.896;2023-01-25T11:41:50;51.60;;;17.00;;
2305;SDS011;1161;51.922;8.896;2023-01-25T11:47:24;45.20;;;17.40;;
2305;SDS011;1161;51.922;8.896;2023-01-25T11:50:01;47.33;;;18.27;;
2305;SDS011;1161;51.922;8.896;2023-01-25T11:52:35;36.65;;;15.95;;
2305;SDS011;1161;51.922;8.896;2023-01-25T11:55:15;41.28;;;15.45;;
2305;SDS011;1161;51.922;8.896;2023-01-25T11:57:52;50.97;;;16.40;;
2305;SDS011;1161;51.922;8.896;2023-01-25T12:00:29;39.17;;;17.95;;
2305;SDS011;1161;51.922;8.896;2023-01-25T12:03:14;56.55;;;19.50;;
2305;SDS011;1161;51.922;8.896;2023-01-25T12:05:52;36.67;;;16.73;;
2305;SDS011;1161;51.922;8.896;2023-01-25T12:08:29;43.00;;;18.20;;
2305;SDS011;1161;51.922;8.896;2023-01-25T12:11:08;42.80;;;14.93;;
2305;SDS011;1161;51.922;8.896;2023-01-25T12:13:42;50.42;;;17.00;;
2305;SDS011;1161;51.922;8.896;2023-01-25T12:16:22;49.55;;;18.27;;
2305;SDS011;1161;51.922;8.896;2023-01-25T12:19:04;35.45;;;15.23;;
2305;SDS011;1161;51.922;8.896;2023-01-25T12:21:41;61.72;;;19.27;;
2305;SDS011;1161;51.922;8.896;2023-01-25T12:24:19;31.63;;;13.45;;
2305;SDS011;1161;51.922;8.896;2023-01-25T12:26:59;40.10;;;16.90;;
2305;SDS011;1161;51.922;8.896;2023-01-25T12:29:33;42.58;;;16.13;;
2305;SDS011;1161;51.922;8.896;2023-01-25T12:32:04;37.92;;;15.20;;
2305;SDS011;1161;51.922;8.896;2023-01-25T12:34:34;36.55;;;13.85;;
2305;SDS011;1161;51.922;8.896;2023-01-25T12:37:04;44.50;;;17.98;;
2305;SDS011;1161;51.922;8.896;2023-01-25T12:39:33;42.65;;;17.10;;
2305;SDS011;1161;51.922;8.896;2023-01-25T12:42:06;49.25;;;16.38;;
2305;SDS011;1161;51.922;8.896;2023-01-25T12:44:38;48.92;;;18.20;;
2305;SDS011;1161;51.922;8.896;2023-01-25T12:47:09;47.33;;;18.73;;
2305;SDS011;1161;51.922;8.896;2023-01-25T12:49:40;38.17;;;13.85;;
2305;SDS011;1161;51.922;8.896;2023-01-25T12:52:14;38.55;;;16.45;;
2305;SDS011;1161;51.922;8.896;2023-01-25T12:54:45;45.97;;;19.77;;
2305;SDS011;1161;51.922;8.896;2023-01-25T12:57:17;39.40;;;16.00;;
2305;SDS011;1161;51.922;8.896;2023-01-25T12:59:49;45.83;;;16.50;;
2305;SDS011;1161;51.922;8.896;2023-01-25T13:02:24;47.33;;;17.30;;
2305;SDS011;1161;51.922;8.896;2023-01-25T13:04:58;40.40;;;15.20;;
2305;SDS011;1161;51.922;8.896;2023-01-25T13:07:31;37.67;;;15.00;;
2305;SDS011;1161;51.922;8.896;2023-01-25T13:10:01;32.88;;;14.48;;
2305;SDS011;1161;51.922;8.896;2023-01-25T13:15:36;39.22;;;13.48;;
2305;SDS011;1161;51.922;8.896;2023-01-25T13:21:02;30.40;;;15.02;;
2305;SDS011;1161;51.922;8.896;2023-01-25T13:23:30;39.65;;;15.43;;
2305;SDS011;1161;51.922;8.896;2023-01-25T13:35:29;31.85;;;13.88;;
2305;SDS011;1161;51.922;8.896;2023-01-25T13:38:04;43.33;;;13.45;;
2305;SDS011;1161;51.922;8.896;2023-01-25T13:41:00;36.10;;;13.52;;
2305;SDS011;1161;51.922;8.896;2023-01-25T13:43:28;25.92;;;10.57;;
2305;SDS011;1161;51.922;8.896;2023-01-25T13:45:57;30.13;;;12.20;;
2305;SDS011;1161;51.922;8.896;2023-01-25T13:48:24;30.15;;;12.35;;
2305;SDS011;1161;51.922;8.896;2023-01-25T13:50:59;31.25;;;11.80;;
2305;SDS011;1161;51.922;8.896;2023-01-25T13:53:28;35.92;;;14.10;;
2305;SDS011;1161;51.922;8.896;2023-01-25T13:55:59;27.20;;;12.55;;
2305;SDS011;1161;51.922;8.896;2023-01-25T13:58:28;65.78;;;18.48;;
2305;SDS011;1161;51.922;8.896;2023-01-25T14:00:58;78.60;;;22.45;;
2305;SDS011;1161;51.922;8.896;2023-01-25T14:03:28;34.58;;;12.60;;
2305;SDS011;1161;51.922;8.896;2023-01-25T14:05:57;28.83;;;11.80;;
2305;SDS011;1161;51.922;8.896;2023-01-25T14:08:26;34.35;;;12.15;;
2305;SDS011;1161;51.922;8.896;2023-01-25T14:10:54;37.15;;;13.52;;
2305;SDS011;1161;51.922;8.896;2023-01-25T14:13:21;35.53;;;15.63;;
2305;SDS011;1161;51.922;8.896;2023-01-25T14:15:52;38.00;;;13.43;;
2305;SDS011;1161;51.922;8.896;2023-01-25T14:18:25;46.42;;;15.15;;
2305;SDS011;1161;51.922;8.896;2023-01-25T14:21:07;36.35;;;12.70;;
2305;SDS011;1161;51.922;8.896;2023-01-25T14:23:35;26.52;;;13.68;;
2305;SDS011;1161;51.922;8.896;2023-01-25T14:26:02;31.05;;;11.25;;
2305;SDS011;1161;51.922;8.896;2023-01-25T14:28:28;28.02;;;11.63;;
2305;SDS011;1161;51.922;8.896;2023-01-25T14:30:56;34.95;;;14.40;;
2305;SDS011;1161;51.922;8.896;2023-01-25T14:33:27;33.30;;;13.55;;
2305;SDS011;1161;51.922;8.896;2023-01-25T14:35:55;27.58;;;13.05;;
2305;SDS011;1161;51.922;8.896;2023-01-25T14:38:29;18.92;;;9.45;;
2305;SDS011;1161;51.922;8.896;2023-01-25T14:40:57;34.53;;;11.07;;
2305;SDS011;1161;51.922;8.896;2023-01-25T14:43:26;28.92;;;11.20;;
2305;SDS011;1161;51.922;8.896;2023-01-25T14:45:56;37.05;;;12.25;;
2305;SDS011;1161;51.922;8.896;2023-01-25T14:48:33;32.38;;;11.55;;
2305;SDS011;1161;51.922;8.896;2023-01-25T14:51:02;44.60;;;13.27;;
2305;SDS011;1161;51.922;8.896;2023-01-25T14:53:30;35.92;;;15.15;;
2305;SDS011;1161;51.922;8.896;2023-01-25T14:55:57;27.95;;;13.15;;
2305;SDS011;1161;51.922;8.896;2023-01-25T14:58:23;53.47;;;13.30;;
2305;SDS011;1161;51.922;8.896;2023-01-25T15:00:56;40.60;;;15.32;;
2305;SDS011;1161;51.922;8.896;2023-01-25T15:03:24;36.42;;;15.40;;
2305;SDS011;1161;51.922;8.896;2023-01-25T15:05:53;37.72;;;14.57;;
2305;SDS011;1161;51.922;8.896;2023-01-25T15:08:26;25.85;;;11.30;;
2305;SDS011;1161;51.922;8.896;2023-01-25T15:10:55;26.27;;;13.40;;
2305;SDS011;1161;51.922;8.896;2023-01-25T15:13:43;33.47;;;12.70;;
2305;SDS011;1161;51.922;8.896;2023-01-25T15:16:13;30.27;;;14.30;;
2305;SDS011;1161;51.922;8.896;2023-01-25T15:18:44;22.77;;;11.85;;
2305;SDS011;1161;51.922;8.896;2023-01-25T15:21:13;27.45;;;10.82;;
2305;SDS011;1161;51.922;8.896;2023-01-25T15:23:41;34.40;;;12.52;;